Time;durP1;ratioP1;P1;durP2;ratioP2;P2;SDS_P1;SDS_P2;PMS_P1;PMS_P2;Temp;Humidity;BMP_temperature;BMP_pressure;BME280_temperature;BME280_humidity;BME280_pressure;Samples;Min_cycle;Max_cycle;Signal;HPM_P1;HPM_P2
2023/09/05 00:01:54;;;;;;;0.00;0.00;;;18.90;93.80;;;;;;5053109;28;20185;-71
2023/09/05 00:04:20;;;;;;;0.00;0.00;;;18.80;93.70;;;;;;5053295;28;20239;-70
2023/09/05 00:06:49;;;;;;;0.00;0.00;;;18.80;93.80;;;;;;5051792;28;20177;-70
2023/09/05 00:09:18;;;;;;;0.00;0.00;;;18.80;94.00;;;;;;5052783;28;20176;-70
2023/09/05 00:11:47;;;;;;;0.00;0.00;;;18.80;94.10;;;;;;5053130;28;20666;-70
2023/09/05 00:14:15;;;;;;;0.00;0.00;;;18.70;94.10;;;;;;5053017;28;20180;-70
2023/09/05 00:16:41;;;;;;;0.03;0.03;;;18.70;94.20;;;;;;5053224;28;20271;-70
2023/09/05 00:19:06;;;;;;;0.00;0.00;;;18.60;94.40;;;;;;5053163;28;20181;-71
2023/09/05 00:21:32;;;;;;;0.00;0.00;;;18.50;94.50;;;;;;5052569;28;20200;-70
2023/09/05 00:24:33;;;;;;;0.20;0.20;;;18.50;94.70;;;;;;5052445;28;20196;-70
2023/09/05 00:27:00;;;;;;;0.00;0.00;;;18.50;94.90;;;;;;5051491;28;20174;-70
2023/09/05 00:29:27;;;;;;;0.00;0.00;;;18.40;95.10;;;;;;5052484;28;20680;-70
2023/09/05 00:31:54;;;;;;;0.00;0.00;;;18.40;95.30;;;;;;5052089;28;20225;-70
2023/09/05 00:34:19;;;;;;;0.00;0.00;;;18.40;95.50;;;;;;5052612;28;20177;-71
2023/09/05 00:36:47;;;;;;;0.00;0.00;;;18.30;95.70;;;;;;5052357;28;20223;-70
2023/09/05 00:39:14;;;;;;;0.00;0.00;;;18.30;95.90;;;;;;5052308;28;20174;-70
2023/09/05 00:41:40;;;;;;;0.00;0.00;;;18.30;96.10;;;;;;5052136;28;20708;-70
2023/09/05 00:44:06;;;;;;;0.00;0.00;;;18.20;96.20;;;;;;5052899;28;20169;-70
2023/09/05 00:46:32;;;;;;;0.38;0.38;;;18.20;96.30;;;;;;5053048;28;20694;-70
2023/09/05 00:49:02;;;;;;;0.00;0.00;;;18.10;96.50;;;;;;5053270;28;20670;-70
2023/09/05 00:51:32;;;;;;;0.32;0.32;;;18.10;96.80;;;;;;5052105;28;20184;-70
2023/09/05 00:54:03;;;;;;;0.00;0.00;;;18.00;97.00;;;;;;5052004;28;20665;-71
2023/09/05 00:56:28;;;;;;;0.10;0.10;;;18.00;97.20;;;;;;5051796;28;20236;-71
2023/09/05 00:58:54;;;;;;;0.00;0.00;;;18.00;97.50;;;;;;5052081;28;20220;-71
2023/09/05 01:01:20;;;;;;;0.00;0.00;;;17.90;97.60;;;;;;5052136;28;20217;-71
2023/09/05 01:03:45;;;;;;;0.00;0.00;;;17.90;97.90;;;;;;5049998;28;20559;-71
2023/09/05 01:06:22;;;;;;;0.00;0.00;;;17.90;98.10;;;;;;5052086;28;20181;-71
2023/09/05 01:08:56;;;;;;;0.00;0.00;;;17.80;98.40;;;;;;5052119;28;20181;-71
2023/09/05 01:11:21;;;;;;;0.08;0.08;;;17.80;98.70;;;;;;5049220;28;20343;-72
2023/09/05 01:13:47;;;;;;;0.00;0.00;;;17.80;99.00;;;;;;5051863;28;20684;-71
2023/09/05 01:16:13;;;;;;;0.00;0.00;;;17.70;98.90;;;;;;5051691;28;20205;-72
2023/09/05 01:18:40;;;;;;;0.00;0.00;;;17.70;99.00;;;;;;5052115;28;20182;-71
2023/09/05 01:21:23;;;;;;;0.00;0.00;;;17.70;99.10;;;;;;5051922;28;20188;-71
2023/09/05 01:24:17;;;;;;;0.00;0.00;;;17.60;99.30;;;;;;5049444;28;20246;-71
2023/09/05 01:26:43;;;;;;;0.00;0.00;;;17.60;99.50;;;;;;5051870;28;20593;-71
2023/09/05 01:29:11;;;;;;;0.10;0.10;;;17.60;99.70;;;;;;5051607;28;20249;-71
2023/09/05 01:31:37;;;;;;;0.20;0.20;;;17.50;99.80;;;;;;5051478;28;20236;-71
2023/09/05 01:34:03;;;;;;;0.00;0.00;;;17.50;99.90;;;;;;5050015;28;20196;-71
2023/09/05 01:36:28;;;;;;;0.00;0.00;;;17.50;99.90;;;;;;5051532;28;20232;-71
2023/09/05 01:38:54;;;;;;;0.00;0.00;;;17.50;99.90;;;;;;5050357;28;20181;-71
2023/09/05 01:41:20;;;;;;;0.00;0.00;;;17.40;99.90;;;;;;5051148;28;20197;-71
2023/09/05 01:43:45;;;;;;;0.03;0.03;;;17.40;99.90;;;;;;5051124;28;20250;-71
2023/09/05 01:46:11;;;;;;;0.00;0.00;;;17.40;99.90;;;;;;5051053;28;20195;-71
2023/09/05 01:48:37;;;;;;;0.10;0.10;;;17.40;99.90;;;;;;5051035;28;20192;-71
2023/09/05 01:51:02;;;;;;;0.00;0.00;;;17.40;99.90;;;;;;5049769;28;20174;-71
2023/09/05 01:53:28;;;;;;;0.10;0.10;;;17.30;99.90;;;;;;5050698;28;20182;-71
2023/09/05 01:55:53;;;;;;;0.00;0.00;;;17.30;99.90;;;;;;5050544;28;20181;-71
2023/09/05 01:58:19;;;;;;;0.10;0.10;;;17.30;99.90;;;;;;5050809;28;20263;-71
2023/09/05 02:00:44;;;;;;;0.00;0.00;;;17.20;99.90;;;;;;5050767;28;20640;-71
2023/09/05 02:03:10;;;;;;;0.00;0.00;;;17.20;99.90;;;;;;5050516;28;20176;-71
2023/09/05 02:05:36;;;;;;;0.00;0.00;;;17.10;99.90;;;;;;5050644;28;20185;-71
2023/09/05 02:08:02;;;;;;;0.00;0.00;;;17.10;99.90;;;;;;5050001;28;20636;-71
2023/09/05 02:10:30;;;;;;;0.10;0.10;;;17.10;99.90;;;;;;5050287;28;20288;-71
2023/09/05 02:12:55;;;;;;;0.00;0.00;;;17.10;99.90;;;;;;5050092;28;20637;-71
2023/09/05 02:15:21;;;;;;;0.00;0.00;;;17.00;99.90;;;;;;5050760;28;20197;-71
2023/09/05 02:17:47;;;;;;;0.00;0.00;;;17.00;99.90;;;;;;5050611;28;20706;-71
2023/09/05 02:20:12;;;;;;;0.10;0.10;;;17.00;99.90;;;;;;5050267;28;20238;-71
2023/09/05 02:22:38;;;;;;;0.00;0.00;;;16.90;99.90;;;;;;5050334;28;20421;-71
2023/09/05 02:25:03;;;;;;;0.00;0.00;;;16.90;99.90;;;;;;5050570;28;20178;-71
2023/09/05 02:27:29;;;;;;;0.00;0.00;;;16.90;99.90;;;;;;5050583;28;20189;-71
2023/09/05 02:30:01;;;;;;;0.00;0.00;;;16.90;99.90;;;;;;5050495;28;20330;-70
2023/09/05 02:32:29;;;;;;;0.00;0.00;;;16.80;99.90;;;;;;5050586;28;20534;-71
2023/09/05 02:34:55;;;;;;;0.00;0.00;;;16.80;99.90;;;;;;5050332;28;20181;-71
2023/09/05 02:37:20;;;;;;;0.00;0.00;;;16.80;99.90;;;;;;5054149;28;20702;-70
2023/09/05 02:39:46;;;;;;;0.05;0.05;;;16.70;99.90;;;;;;5051099;28;20243;-70
2023/09/05 02:42:11;;;;;;;0.00;0.00;;;16.70;99.90;;;;;;5050693;28;20204;-71
2023/09/05 02:44:37;;;;;;;0.00;0.00;;;16.70;99.90;;;;;;5050690;28;20178;-71
2023/09/05 02:47:03;;;;;;;0.00;0.00;;;16.60;99.90;;;;;;5048681;28;20227;-71
2023/09/05 02:49:28;;;;;;;0.00;0.00;;;16.60;99.90;;;;;;5050715;28;20245;-71
2023/09/05 02:51:54;;;;;;;0.00;0.00;;;16.60;99.90;;;;;;5050617;28;20249;-70
2023/09/05 02:54:19;;;;;;;0.00;0.00;;;16.60;99.90;;;;;;5048458;28;20165;-71
2023/09/05 02:56:45;;;;;;;0.00;0.00;;;16.60;99.90;;;;;;5050754;28;20721;-71
2023/09/05 02:59:10;;;;;;;0.00;0.00;;;16.50;99.90;;;;;;5050734;28;20182;-71
2023/09/05 03:01:36;;;;;;;0.00;0.00;;;16.50;99.90;;;;;;5050824;28;20660;-71
2023/09/05 03:04:01;;;;;;;0.00;0.00;;;16.50;99.90;;;;;;5050785;28;20176;-70
2023/09/05 03:06:27;;;;;;;0.00;0.00;;;16.40;99.90;;;;;;5051480;28;20212;-71
2023/09/05 03:08:52;;;;;;;0.10;0.10;;;16.40;99.90;;;;;;5049036;28;20227;-71
2023/09/05 03:11:18;;;;;;;0.00;0.00;;;16.40;99.90;;;;;;5049353;28;20637;-71
2023/09/05 03:13:45;;;;;;;0.00;0.00;;;16.40;99.90;;;;;;5050074;28;20189;-71
2023/09/05 03:16:12;;;;;;;0.00;0.00;;;16.40;99.90;;;;;;5049744;28;20205;-72
2023/09/05 03:18:38;;;;;;;0.00;0.00;;;16.30;99.90;;;;;;5053199;28;20274;-71
2023/09/05 03:21:04;;;;;;;1.10;0.25;;;16.30;99.90;;;;;;5053768;28;20172;-71
2023/09/05 03:23:29;;;;;;;0.00;0.00;;;16.30;99.90;;;;;;5054332;28;20197;-73
2023/09/05 03:25:56;;;;;;;0.00;0.00;;;16.30;99.90;;;;;;5054359;28;20186;-74
2023/09/05 03:28:22;;;;;;;0.00;0.00;;;16.30;99.90;;;;;;5054236;28;20189;-74
2023/09/05 03:30:48;;;;;;;0.00;0.00;;;16.30;99.90;;;;;;5053857;28;20270;-76
2023/09/05 03:33:13;;;;;;;0.00;0.00;;;16.30;99.90;;;;;;5053567;28;20185;-75
2023/09/05 03:35:39;;;;;;;0.00;0.00;;;16.20;99.90;;;;;;5054408;28;20221;-76
2023/09/05 03:38:07;;;;;;;0.00;0.00;;;16.20;99.90;;;;;;5053965;28;20213;-69
2023/09/05 03:40:33;;;;;;;0.00;0.00;;;16.10;99.90;;;;;;5053953;28;20184;-73
2023/09/05 03:42:59;;;;;;;0.00;0.00;;;16.10;99.90;;;;;;5054640;28;20170;-66
2023/09/05 03:45:27;;;;;;;0.00;0.00;;;16.10;99.90;;;;;;5053331;28;20174;-69
2023/09/05 03:47:53;;;;;;;0.00;0.00;;;16.10;99.90;;;;;;5054048;28;20173;-67
2023/09/05 03:50:18;;;;;;;0.00;0.00;;;16.10;99.90;;;;;;5052657;28;20256;-67
2023/09/05 03:52:44;;;;;;;0.00;0.00;;;16.10;99.90;;;;;;5053800;28;20667;-73
2023/09/05 03:55:09;;;;;;;0.00;0.00;;;16.00;99.90;;;;;;5054009;28;20192;-66
2023/09/05 03:57:35;;;;;;;0.00;0.00;;;16.00;99.90;;;;;;5053856;28;20223;-68
2023/09/05 04:00:01;;;;;;;0.10;0.10;;;16.00;99.90;;;;;;5053824;28;20181;-66
2023/09/05 04:02:26;;;;;;;0.00;0.00;;;16.00;99.90;;;;;;5047878;28;20229;-68
2023/09/05 04:04:55;;;;;;;0.00;0.00;;;16.00;99.90;;;;;;5052293;28;20323;-67
2023/09/05 04:07:22;;;;;;;0.00;0.00;;;16.00;99.90;;;;;;5053249;28;20217;-68
2023/09/05 04:09:48;;;;;;;0.00;0.00;;;16.00;99.90;;;;;;5053401;28;20161;-62
2023/09/05 04:12:14;;;;;;;0.10;0.10;;;16.00;99.90;;;;;;5053528;28;20189;-66
2023/09/05 04:14:39;;;;;;;0.00;0.00;;;16.00;99.90;;;;;;5053715;28;20196;-67
2023/09/05 04:17:05;;;;;;;0.00;0.00;;;16.00;99.90;;;;;;5053545;28;20547;-67
2023/09/05 04:19:31;;;;;;;0.00;0.00;;;16.00;99.90;;;;;;5053629;28;20177;-66
2023/09/05 04:21:57;;;;;;;0.00;0.00;;;16.00;99.90;;;;;;5053651;28;20204;-66
2023/09/05 04:24:22;;;;;;;0.00;0.00;;;16.00;99.90;;;;;;5052802;28;20174;-66
2023/09/05 04:26:48;;;;;;;0.00;0.00;;;16.00;99.90;;;;;;5053643;28;20539;-66
2023/09/05 04:29:13;;;;;;;0.00;0.00;;;16.00;99.90;;;;;;5052630;28;20185;-66
2023/09/05 04:31:39;;;;;;;0.00;0.00;;;16.00;99.90;;;;;;5053535;28;20229;-66
2023/09/05 04:34:04;;;;;;;0.10;0.10;;;16.00;99.90;;;;;;5053321;28;20703;-66
2023/09/05 04:36:30;;;;;;;0.00;0.00;;;15.90;99.90;;;;;;5053605;28;20225;-66
2023/09/05 04:38:55;;;;;;;0.00;0.00;;;16.00;99.90;;;;;;5053444;28;20254;-67
2023/09/05 04:41:22;;;;;;;0.20;0.20;;;15.90;99.90;;;;;;5052041;28;20560;-66
2023/09/05 04:43:47;;;;;;;0.00;0.00;;;15.90;99.90;;;;;;5053376;28;20260;-66
2023/09/05 04:46:14;;;;;;;0.00;0.00;;;15.90;99.90;;;;;;5052616;28;20185;-67
2023/09/05 04:48:39;;;;;;;0.00;0.00;;;15.90;99.90;;;;;;5053394;28;20260;-69
2023/09/05 04:51:05;;;;;;;0.00;0.00;;;15.90;99.90;;;;;;5052612;28;20276;-67
2023/09/05 04:53:31;;;;;;;0.00;0.00;;;15.90;99.90;;;;;;5052820;28;20189;-69
2023/09/05 04:56:00;;;;;;;0.00;0.00;;;15.90;99.90;;;;;;5052415;28;20186;-69
2023/09/05 04:58:27;;;;;;;0.00;0.00;;;15.90;99.90;;;;;;5052800;28;20178;-69
2023/09/05 05:00:53;;;;;;;0.00;0.00;;;15.90;99.90;;;;;;5052911;28;20182;-69
2023/09/05 05:03:19;;;;;;;0.15;0.15;;;15.90;99.90;;;;;;5052532;28;20185;-69
2023/09/05 05:05:45;;;;;;;0.00;0.00;;;15.90;99.90;;;;;;5052674;28;20227;-69
2023/09/05 05:08:10;;;;;;;0.00;0.00;;;15.90;99.90;;;;;;5052763;28;20540;-69
2023/09/05 05:10:38;;;;;;;0.00;0.00;;;15.90;99.90;;;;;;5052788;28;20173;-69
2023/09/05 05:13:03;;;;;;;0.00;0.00;;;15.90;99.90;;;;;;5052491;28;20174;-69
2023/09/05 05:15:29;;;;;;;0.00;0.00;;;16.00;99.90;;;;;;5052682;28;20227;-69
2023/09/05 05:17:55;;;;;;;0.00;0.00;;;16.00;99.90;;;;;;5051092;28;20213;-69
2023/09/05 05:20:20;;;;;;;0.10;0.10;;;16.00;99.90;;;;;;5052371;28;20316;-69
2023/09/05 05:22:46;;;;;;;0.00;0.00;;;16.10;99.90;;;;;;5052597;28;20212;-69
2023/09/05 05:25:11;;;;;;;0.00;0.00;;;16.10;99.90;;;;;;5052417;28;20174;-69
2023/09/05 05:27:37;;;;;;;0.00;0.00;;;16.20;99.90;;;;;;5052666;28;20189;-69
2023/09/05 05:30:03;;;;;;;0.10;0.10;;;16.20;99.90;;;;;;5051912;28;20180;-69
2023/09/05 05:32:28;;;;;;;0.08;0.08;;;16.30;99.90;;;;;;5052151;28;20703;-69
2023/09/05 05:34:54;;;;;;;0.00;0.00;;;16.40;99.90;;;;;;5052206;28;20173;-69
2023/09/05 05:37:20;;;;;;;0.00;0.00;;;16.40;99.90;;;;;;5051954;28;20763;-69
2023/09/05 05:39:45;;;;;;;0.00;0.00;;;16.50;99.90;;;;;;5052102;28;20166;-69
2023/09/05 05:42:11;;;;;;;0.00;0.00;;;16.60;99.90;;;;;;5051766;28;20532;-70
2023/09/05 05:44:38;;;;;;;0.00;0.00;;;16.70;99.90;;;;;;5052051;28;20193;-69
2023/09/05 05:47:03;;;;;;;0.00;0.00;;;16.80;99.90;;;;;;5051834;28;20181;-69
2023/09/05 05:49:29;;;;;;;0.05;0.03;;;16.90;99.90;;;;;;5051973;28;20184;-69
2023/09/05 05:51:56;;;;;;;0.00;0.00;;;17.10;99.90;;;;;;5051920;28;20184;-69
2023/09/05 05:54:22;;;;;;;0.00;0.00;;;17.30;99.90;;;;;;5051723;28;20174;-69
2023/09/05 05:56:49;;;;;;;0.00;0.00;;;17.50;99.90;;;;;;5051585;28;20258;-70
2023/09/05 05:59:15;;;;;;;0.00;0.00;;;17.70;99.90;;;;;;5051512;28;20526;-69
2023/09/05 06:01:40;;;;;;;0.00;0.00;;;18.10;99.90;;;;;;5051776;28;20173;-69
2023/09/05 06:04:06;;;;;;;0.00;0.00;;;18.50;99.90;;;;;;5050414;28;20170;-69
2023/09/05 06:06:31;;;;;;;0.47;0.10;;;19.00;99.90;;;;;;5051442;28;20178;-69
2023/09/05 06:08:57;;;;;;;0.00;0.00;;;19.40;99.90;;;;;;5051603;28;20177;-69
2023/09/05 06:11:23;;;;;;;0.00;0.00;;;19.90;99.90;;;;;;5051536;28;20165;-69
2023/09/05 06:13:51;;;;;;;0.00;0.00;;;20.40;99.90;;;;;;5050169;28;20211;-69
2023/09/05 06:16:18;;;;;;;0.00;0.00;;;21.00;99.20;;;;;;5051323;28;20212;-69
2023/09/05 06:18:43;;;;;;;0.00;0.00;;;21.40;98.30;;;;;;5051410;28;20319;-69
2023/09/05 06:21:09;;;;;;;0.00;0.00;;;21.80;97.70;;;;;;5051148;28;20260;-69
2023/09/05 06:23:35;;;;;;;0.00;0.00;;;22.20;97.10;;;;;;5051427;28;20183;-69
2023/09/05 06:26:01;;;;;;;0.00;0.00;;;22.70;96.30;;;;;;5051356;28;20707;-70
2023/09/05 06:28:27;;;;;;;0.00;0.00;;;23.10;95.60;;;;;;5051236;28;20929;-70
2023/09/05 06:30:57;;;;;;;0.00;0.00;;;23.50;95.10;;;;;;5051008;28;20228;-70
2023/09/05 06:33:23;;;;;;;0.00;0.00;;;24.00;94.00;;;;;;5051255;28;20181;-70
2023/09/05 06:35:49;;;;;;;0.00;0.00;;;24.30;93.70;;;;;;5051012;28;20165;-70
2023/09/05 06:38:14;;;;;;;0.00;0.00;;;24.60;92.20;;;;;;5050981;28;20303;-70
2023/09/05 06:40:40;;;;;;;0.00;0.00;;;24.80;91.50;;;;;;5051190;28;20732;-70
2023/09/05 06:43:06;;;;;;;0.00;0.00;;;25.00;91.10;;;;;;5050979;28;20207;-70
2023/09/05 06:45:31;;;;;;;0.00;0.00;;;25.30;90.70;;;;;;5051044;28;20178;-69
2023/09/05 06:47:57;;;;;;;0.00;0.00;;;25.60;89.90;;;;;;5051048;28;20177;-70
2023/09/05 06:50:24;;;;;;;0.00;0.00;;;25.90;87.90;;;;;;5051033;28;20173;-70
2023/09/05 06:52:49;;;;;;;0.00;0.00;;;26.30;86.00;;;;;;5053514;28;20636;-70
2023/09/05 06:55:15;;;;;;;0.00;0.00;;;26.60;84.60;;;;;;5057540;28;20215;-70
2023/09/05 06:57:40;;;;;;;0.80;0.75;;;26.80;82.90;;;;;;5057502;28;20258;-70
2023/09/05 07:00:07;;;;;;;0.00;0.00;;;27.10;82.30;;;;;;5057351;28;20177;-69
2023/09/05 07:02:32;;;;;;;0.00;0.00;;;27.50;81.00;;;;;;5057562;28;20188;-70
2023/09/05 07:04:58;;;;;;;0.00;0.00;;;27.80;78.60;;;;;;5057557;28;20173;-69
2023/09/05 07:07:25;;;;;;;0.00;0.00;;;28.00;77.20;;;;;;5057458;28;20188;-70
2023/09/05 07:09:50;;;;;;;0.00;0.00;;;28.40;77.20;;;;;;5056103;28;20272;-70
2023/09/05 07:12:16;;;;;;;0.00;0.00;;;28.70;73.40;;;;;;5057413;28;20268;-67
2023/09/05 07:14:42;;;;;;;0.00;0.00;;;28.80;72.60;;;;;;5057453;28;20177;-67
2023/09/05 07:17:08;;;;;;;0.00;0.00;;;28.90;71.10;;;;;;5057204;28;20216;-67
2023/09/05 07:19:33;;;;;;;0.00;0.00;;;29.00;71.50;;;;;;5057422;28;20627;-67
2023/09/05 07:21:59;;;;;;;0.00;0.00;;;29.20;71.20;;;;;;5057340;28;20652;-67
2023/09/05 07:24:25;;;;;;;0.00;0.00;;;29.40;67.80;;;;;;5057381;28;20212;-67
2023/09/05 07:26:50;;;;;;;0.00;0.00;;;29.40;67.60;;;;;;5057378;28;20175;-68
2023/09/05 07:29:15;;;;;;;0.00;0.00;;;29.40;66.60;;;;;;5057279;28;20191;-67
2023/09/05 07:31:42;;;;;;;0.00;0.00;;;29.30;65.60;;;;;;5057059;28;20229;-67
2023/09/05 07:34:08;;;;;;;0.00;0.00;;;29.10;65.70;;;;;;5057212;28;20186;-67
2023/09/05 07:36:35;;;;;;;0.00;0.00;;;29.10;65.40;;;;;;5057274;28;20215;-67
2023/09/05 07:39:03;;;;;;;0.00;0.00;;;29.40;65.90;;;;;;5057195;28;20645;-67
2023/09/05 07:41:30;;;;;;;0.00;0.00;;;29.60;64.90;;;;;;5057099;28;20162;-68
2023/09/05 07:43:55;;;;;;;0.00;0.00;;;29.80;64.10;;;;;;5057080;28;20625;-67
2023/09/05 07:46:21;;;;;;;0.00;0.00;;;30.10;64.80;;;;;;5057055;28;20289;-67
2023/09/05 07:48:47;;;;;;;0.00;0.00;;;30.10;62.10;;;;;;5057103;28;20173;-67
2023/09/05 07:51:12;;;;;;;0.00;0.00;;;30.10;62.70;;;;;;5057005;28;20216;-67
2023/09/05 07:53:38;;;;;;;0.00;0.00;;;30.30;62.10;;;;;;5057205;28;20174;-67
2023/09/05 07:56:04;;;;;;;0.00;0.00;;;30.40;60.80;;;;;;5056808;28;20231;-67
2023/09/05 07:58:30;;;;;;;0.00;0.00;;;30.50;60.90;;;;;;5056848;28;20243;-67
2023/09/05 08:00:56;;;;;;;0.00;0.00;;;30.70;59.70;;;;;;5057055;28;20223;-67
2023/09/05 08:03:25;;;;;;;0.00;0.00;;;30.80;60.10;;;;;;5056657;28;20185;-67
2023/09/05 08:05:53;;;;;;;0.00;0.00;;;30.90;59.90;;;;;;5052640;28;20267;-68
2023/09/05 08:08:22;;;;;;;0.00;0.00;;;31.00;58.70;;;;;;5053687;28;20227;-68
2023/09/05 08:10:48;;;;;;;0.00;0.00;;;31.00;58.20;;;;;;5053612;28;20214;-70
2023/09/05 08:13:15;;;;;;;0.00;0.00;;;31.20;59.20;;;;;;5053667;28;20293;-69
2023/09/05 08:15:44;;;;;;;0.00;0.00;;;31.30;59.10;;;;;;5053750;28;20180;-69
2023/09/05 08:18:11;;;;;;;0.00;0.00;;;31.30;57.70;;;;;;5053345;28;20263;-70
2023/09/05 08:20:39;;;;;;;0.00;0.00;;;31.50;58.80;;;;;;5053639;28;20248;-70
2023/09/05 08:23:05;;;;;;;0.00;0.00;;;31.20;55.80;;;;;;5053512;28;20177;-70
2023/09/05 08:25:30;;;;;;;0.00;0.00;;;30.90;56.80;;;;;;5053513;28;20223;-69
2023/09/05 08:27:56;;;;;;;0.00;0.00;;;30.70;57.70;;;;;;5053524;28;20178;-70
2023/09/05 08:30:24;;;;;;;0.03;0.00;;;30.50;57.30;;;;;;5051874;28;20312;-70
2023/09/05 08:32:50;;;;;;;0.00;0.00;;;30.50;59.60;;;;;;5053160;28;20726;-70
2023/09/05 08:35:16;;;;;;;0.00;0.00;;;30.80;59.00;;;;;;5052015;28;20193;-70
2023/09/05 08:37:41;;;;;;;0.00;0.00;;;30.90;57.10;;;;;;5053243;28;20274;-69
2023/09/05 08:40:08;;;;;;;0.00;0.00;;;30.80;56.90;;;;;;5052931;28;20617;-70
2023/09/05 08:42:36;;;;;;;0.08;0.00;;;30.80;58.40;;;;;;5053183;28;20254;-70
2023/09/05 08:45:03;;;;;;;0.00;0.00;;;30.90;59.90;;;;;;5053233;28;20635;-70
2023/09/05 08:47:30;;;;;;;0.00;0.00;;;31.20;57.10;;;;;;5052888;28;20177;-70
2023/09/05 08:49:56;;;;;;;0.00;0.00;;;31.20;56.40;;;;;;5051751;28;20176;-70
2023/09/05 08:52:28;;;;;;;0.10;0.10;;;31.20;57.80;;;;;;5052954;28;20185;-70
2023/09/05 08:54:54;;;;;;;0.00;0.00;;;31.40;56.90;;;;;;5052879;28;20707;-70
2023/09/05 08:57:21;;;;;;;0.00;0.00;;;31.50;56.40;;;;;;5052733;28;20217;-69
2023/09/05 08:59:47;;;;;;;0.00;0.00;;;31.40;56.00;;;;;;5052744;28;20625;-70
2023/09/05 09:02:17;;;;;;;0.00;0.00;;;31.40;58.00;;;;;;5052641;28;20538;-70
2023/09/05 09:04:50;;;;;;;0.00;0.00;;;31.20;56.70;;;;;;5052978;28;20177;-70
2023/09/05 09:07:16;;;;;;;0.00;0.00;;;30.90;56.50;;;;;;5052471;28;20173;-70
2023/09/05 09:09:42;;;;;;;0.00;0.00;;;30.90;57.20;;;;;;5052735;28;20204;-70
2023/09/05 09:12:09;;;;;;;0.00;0.00;;;31.00;57.80;;;;;;5052444;28;20227;-70
2023/09/05 09:14:34;;;;;;;0.00;0.00;;;31.00;57.10;;;;;;5052484;28;20235;-70
2023/09/05 09:17:05;;;;;;;0.00;0.00;;;30.90;57.60;;;;;;5052053;28;20224;-70
2023/09/05 09:19:31;;;;;;;0.00;0.00;;;31.00;57.60;;;;;;5052329;28;20189;-69
2023/09/05 09:22:03;;;;;;;0.00;0.00;;;31.10;56.50;;;;;;5052414;28;20177;-70
2023/09/05 09:24:33;;;;;;;0.00;0.00;;;30.90;56.10;;;;;;5052233;28;20720;-70
2023/09/05 09:27:02;;;;;;;0.00;0.00;;;30.60;55.50;;;;;;5052366;28;20177;-69
2023/09/05 09:29:28;;;;;;;0.00;0.00;;;30.50;57.70;;;;;;5052226;28;20240;-70
2023/09/05 09:32:06;;;;;;;0.00;0.00;;;30.70;57.60;;;;;;5052220;28;20229;-70
2023/09/05 09:34:37;;;;;;;0.00;0.00;;;30.60;55.90;;;;;;5052206;28;20184;-70
2023/09/05 09:37:03;;;;;;;0.00;0.00;;;30.60;56.30;;;;;;5052106;28;20913;-70
2023/09/05 09:39:30;;;;;;;0.00;0.00;;;30.50;55.80;;;;;;5052031;28;20186;-70
2023/09/05 09:42:00;;;;;;;0.00;0.00;;;30.60;56.30;;;;;;5052018;28;20170;-70
2023/09/05 09:44:32;;;;;;;0.20;0.20;;;30.60;55.80;;;;;;5051923;28;20641;-70
2023/09/05 09:47:00;;;;;;;0.00;0.00;;;30.70;56.60;;;;;;5051988;28;20185;-70
2023/09/05 09:49:28;;;;;;;0.00;0.00;;;30.80;56.10;;;;;;5050550;28;20173;-70
2023/09/05 09:52:03;;;;;;;0.00;0.00;;;31.00;56.70;;;;;;5051911;28;20640;-70
2023/09/05 09:54:39;;;;;;;0.00;0.00;;;31.20;55.20;;;;;;5051745;28;20181;-70
2023/09/05 09:57:06;;;;;;;0.00;0.00;;;31.40;56.60;;;;;;5051662;28;20213;-69
2023/09/05 09:59:37;;;;;;;0.00;0.00;;;31.40;54.90;;;;;;5051473;28;20651;-70
2023/09/05 10:02:08;;;;;;;0.00;0.00;;;31.30;55.10;;;;;;5050578;28;20189;-71
2023/09/05 10:04:38;;;;;;;0.00;0.00;;;31.30;55.70;;;;;;5051634;28;20543;-70
2023/09/05 10:07:06;;;;;;;0.00;0.00;;;31.30;55.20;;;;;;5051572;28;20258;-70
2023/09/05 10:09:37;;;;;;;0.00;0.00;;;31.20;55.00;;;;;;5051599;28;20182;-70
2023/09/05 10:12:04;;;;;;;0.00;0.00;;;31.10;55.40;;;;;;5051494;28;20173;-68
2023/09/05 10:14:31;;;;;;;0.00;0.00;;;31.00;55.30;;;;;;5051408;28;20173;-69
2023/09/05 10:16:58;;;;;;;0.00;0.00;;;31.00;55.80;;;;;;5051243;28;20695;-68
2023/09/05 10:19:26;;;;;;;0.00;0.00;;;31.00;54.60;;;;;;5051267;28;20177;-68
2023/09/05 10:21:55;;;;;;;0.00;0.00;;;30.80;55.30;;;;;;5051198;28;20248;-68
2023/09/05 10:24:22;;;;;;;0.00;0.00;;;30.70;55.60;;;;;;5051088;28;20174;-68
2023/09/05 10:26:48;;;;;;;0.00;0.00;;;30.60;54.60;;;;;;5050684;28;20265;-68
2023/09/05 10:29:46;;;;;;;0.00;0.00;;;30.50;55.00;;;;;;5050733;28;20284;-68
2023/09/05 10:32:14;;;;;;;0.00;0.00;;;30.40;55.40;;;;;;5049568;28;20582;-68
2023/09/05 10:34:48;;;;;;;0.00;0.00;;;30.30;56.50;;;;;;5051203;28;20299;-68
2023/09/05 10:37:22;;;;;;;0.00;0.00;;;30.40;56.30;;;;;;5050873;28;20216;-68
2023/09/05 10:39:49;;;;;;;0.00;0.00;;;30.40;55.90;;;;;;5050945;28;20205;-68
2023/09/05 10:42:16;;;;;;;0.00;0.00;;;30.20;56.00;;;;;;5050865;28;20300;-68
2023/09/05 10:44:44;;;;;;;0.00;0.00;;;30.30;56.40;;;;;;5050990;28;20659;-67
2023/09/05 10:47:30;;;;;;;0.00;0.00;;;30.20;55.70;;;;;;5050789;28;20264;-68
2023/09/05 10:50:07;;;;;;;0.00;0.00;;;30.00;55.10;;;;;;5050910;28;20189;-68
2023/09/05 10:52:33;;;;;;;0.00;0.00;;;30.00;55.80;;;;;;5050955;28;20185;-69
2023/09/05 10:55:31;;;;;;;0.10;0.00;;;30.10;55.20;;;;;;5050843;28;20177;-67
2023/09/05 10:57:58;;;;;;;0.00;0.00;;;30.00;55.10;;;;;;5050675;28;20560;-68
2023/09/05 11:00:26;;;;;;;0.00;0.00;;;30.10;55.80;;;;;;5050661;28;20645;-68
2023/09/05 11:02:56;;;;;;;0.00;0.00;;;30.30;56.20;;;;;;5050798;28;20177;-68
2023/09/05 11:05:24;;;;;;;0.00;0.00;;;30.60;55.50;;;;;;5050705;28;20557;-68
2023/09/05 11:07:50;;;;;;;0.00;0.00;;;30.50;55.30;;;;;;5050668;28;20249;-67
2023/09/05 11:10:51;;;;;;;0.00;0.00;;;30.60;56.30;;;;;;5050734;28;20724;-68
2023/09/05 11:13:17;;;;;;;0.00;0.00;;;30.90;55.70;;;;;;5038795;28;20271;-69
2023/09/05 11:15:45;;;;;;;0.00;0.00;;;31.30;55.50;;;;;;5050734;28;20189;-70
2023/09/05 11:18:14;;;;;;;0.00;0.00;;;31.70;55.30;;;;;;5050372;28;20294;-70
2023/09/05 11:20:47;;;;;;;0.00;0.00;;;31.90;54.10;;;;;;5050772;28;20583;-69
2023/09/05 11:23:25;;;;;;;0.00;0.00;;;32.10;53.60;;;;;;5050566;28;20714;-70
2023/09/05 11:26:05;;;;;;;0.00;0.00;;;32.00;53.80;;;;;;5050615;28;20180;-70
2023/09/05 11:28:30;;;;;;;0.00;0.00;;;31.90;53.50;;;;;;5050696;28;20192;-70
2023/09/05 11:30:59;;;;;;;0.00;0.00;;;31.90;54.20;;;;;;5050381;28;20701;-70
2023/09/05 11:33:26;;;;;;;0.00;0.00;;;31.90;55.00;;;;;;5049315;28;20571;-70
2023/09/05 11:35:52;;;;;;;0.00;0.00;;;31.80;52.80;;;;;;5050540;28;20166;-70
2023/09/05 11:38:19;;;;;;;0.00;0.00;;;31.80;53.30;;;;;;5050576;28;20220;-69
2023/09/05 11:40:55;;;;;;;0.00;0.00;;;31.60;52.40;;;;;;5054372;28;20540;-70
2023/09/05 11:43:24;;;;;;;0.00;0.00;;;31.50;52.70;;;;;;5054177;28;20177;-69
2023/09/05 11:45:57;;;;;;;0.00;0.00;;;31.50;54.10;;;;;;5054178;28;20169;-69
2023/09/05 11:48:24;;;;;;;0.00;0.00;;;31.60;52.40;;;;;;5054058;28;20185;-70
2023/09/05 11:50:50;;;;;;;0.00;0.00;;;31.60;52.00;;;;;;5054066;28;20536;-70
2023/09/05 11:53:18;;;;;;;0.00;0.00;;;31.80;53.20;;;;;;5054056;28;20204;-70
2023/09/05 11:55:45;;;;;;;0.00;0.00;;;31.90;52.10;;;;;;5053973;28;20204;-69
2023/09/05 11:58:13;;;;;;;0.00;0.00;;;31.80;52.50;;;;;;5053772;28;20635;-70
2023/09/05 12:00:44;;;;;;;0.00;0.00;;;31.80;53.30;;;;;;5053898;28;20231;-70
2023/09/05 12:03:12;;;;;;;0.10;0.10;;;31.80;52.80;;;;;;5053673;28;20182;-70
2023/09/05 12:05:38;;;;;;;0.00;0.00;;;31.90;51.90;;;;;;5053892;28;20196;-70
2023/09/05 12:08:05;;;;;;;0.20;0.00;;;31.90;51.50;;;;;;5053650;28;20178;-70
2023/09/05 12:10:43;;;;;;;0.00;0.00;;;31.90;50.90;;;;;;5053787;28;20182;-69
2023/09/05 12:13:09;;;;;;;0.00;0.00;;;31.80;49.80;;;;;;5053560;28;20604;-69
2023/09/05 12:15:36;;;;;;;0.00;0.00;;;31.80;50.40;;;;;;5053683;28;20174;-70
2023/09/05 12:18:04;;;;;;;0.00;0.00;;;31.90;51.00;;;;;;5053586;28;20209;-70
2023/09/05 12:20:34;;;;;;;0.00;0.00;;;31.90;50.60;;;;;;5053670;28;20177;-69
2023/09/05 12:23:03;;;;;;;0.00;0.00;;;31.90;51.50;;;;;;5053685;28;20200;-70
2023/09/05 12:25:29;;;;;;;0.00;0.00;;;31.90;51.20;;;;;;5053619;28;20177;-70
2023/09/05 12:28:20;;;;;;;0.00;0.00;;;31.80;50.60;;;;;;5053503;28;20179;-70
2023/09/05 12:30:50;;;;;;;0.10;0.10;;;31.80;51.60;;;;;;5053168;28;20217;-70
2023/09/05 12:33:16;;;;;;;0.00;0.00;;;31.80;52.30;;;;;;5053255;28;20182;-70
2023/09/05 12:35:43;;;;;;;0.00;0.00;;;32.00;52.30;;;;;;5053462;28;20651;-70
2023/09/05 12:38:10;;;;;;;0.00;0.00;;;32.10;52.10;;;;;;5053080;28;20205;-70
2023/09/05 12:40:36;;;;;;;0.00;0.00;;;32.10;52.00;;;;;;5053243;28;20205;-70
2023/09/05 12:43:03;;;;;;;0.00;0.00;;;32.20;52.60;;;;;;5053076;28;20177;-70
2023/09/05 12:45:29;;;;;;;0.00;0.00;;;32.30;52.50;;;;;;5052923;28;20541;-70
2023/09/05 12:47:54;;;;;;;0.00;0.00;;;32.20;50.60;;;;;;5053132;28;20173;-69
2023/09/05 12:50:35;;;;;;;0.00;0.00;;;31.90;51.40;;;;;;5052320;28;20181;-70